sensor_id;sensor_type;location;lat;lon;timestamp;pressure;altitude;pressure_sealevel;temperature;humidity
60646;BME280;46462;32.608;-117.032;2023-02-28T00:01:04;99829.61;;;24.59;28.16
60646;BME280;46462;32.608;-117.032;2023-02-28T00:03:33;99831.11;;;24.83;27.74
60646;BME280;46462;32.608;-117.032;2023-02-28T00:06:05;99831.51;;;24.82;27.77
60646;BME280;46462;32.608;-117.032;2023-02-28T00:08:35;99828.66;;;24.83;27.83
60646;BME280;46462;32.608;-117.032;2023-02-28T00:11:09;99835.61;;;24.42;28.73
60646;BME280;46462;32.608;-117.032;2023-02-28T00:13:39;99832.40;;;24.13;29.31
60646;BME280;46462;32.608;-117.032;2023-02-28T00:16:08;99830.96;;;24.09;29.50
60646;BME280;46462;32.608;-117.032;2023-02-28T00:18:38;99829.37;;;24.24;29.66
60646;BME280;46462;32.608;-117.032;2023-02-28T00:21:09;99829.57;;;24.50;29.54
60646;BME280;46462;32.608;-117.032;2023-02-28T00:23:39;99829.01;;;24.67;29.28
60646;BME280;46462;32.608;-117.032;2023-02-28T00:26:10;99827.29;;;24.72;29.24
60646;BME280;46462;32.608;-117.032;2023-02-28T00:28:41;99828.22;;;24.48;29.71
60646;BME280;46462;32.608;-117.032;2023-02-28T00:31:12;99828.40;;;24.52;29.75
60646;BME280;46462;32.608;-117.032;2023-02-28T00:33:42;99824.89;;;24.74;29.52
60646;BME280;46462;32.608;-117.032;2023-02-28T00:36:13;99824.70;;;24.73;29.43
60646;BME280;46462;32.608;-117.032;2023-02-28T00:38:44;99825.46;;;24.71;29.55
60646;BME280;46462;32.608;-117.032;2023-02-28T00:41:15;99826.26;;;24.57;29.84
60646;BME280;46462;32.608;-117.032;2023-02-28T00:43:45;99832.39;;;24.51;30.03
60646;BME280;46462;32.608;-117.032;2023-02-28T00:46:16;99835.00;;;24.39;30.17
60646;BME280;46462;32.608;-117.032;2023-02-28T00:48:47;99835.05;;;24.29;30.34
60646;BME280;46462;32.608;-117.032;2023-02-28T00:51:18;99835.44;;;24.18;30.95
60646;BME280;46462;32.608;-117.032;2023-02-28T00:56:20;99838.47;;;23.96;31.11
60646;BME280;46462;32.608;-117.032;2023-02-28T00:58:50;99832.75;;;23.74;31.62
60646;BME280;46462;32.608;-117.032;2023-02-28T01:01:21;99836.45;;;23.63;31.79
60646;BME280;46462;32.608;-117.032;2023-02-28T01:03:52;99840.70;;;23.45;32.37
60646;BME280;46462;32.608;-117.032;2023-02-28T01:06:23;99841.40;;;23.35;32.28
60646;BME280;46462;32.608;-117.032;2023-02-28T01:08:53;99845.51;;;23.04;32.99
60646;BME280;46462;32.608;-117.032;2023-02-28T01:11:24;99844.37;;;23.02;33.31
60646;BME280;46462;32.608;-117.032;2023-02-28T01:13:55;99853.81;;;22.78;33.88
60646;BME280;46462;32.608;-117.032;2023-02-28T01:16:26;99856.22;;;22.70;34.21
60646;BME280;46462;32.608;-117.032;2023-02-28T01:18:57;99857.50;;;22.72;34.46
60646;BME280;46462;32.608;-117.032;2023-02-28T01:21:27;99858.59;;;22.58;34.79
60646;BME280;46462;32.608;-117.032;2023-02-28T01:23:58;99860.20;;;22.46;35.21
60646;BME280;46462;32.608;-117.032;2023-02-28T01:26:29;99862.25;;;22.38;35.16
60646;BME280;46462;32.608;-117.032;2023-02-28T01:29:00;99860.35;;;22.44;35.33
60646;BME280;46462;32.608;-117.032;2023-02-28T01:31:31;99857.63;;;22.40;35.37
60646;BME280;46462;32.608;-117.032;2023-02-28T01:34:02;99857.72;;;22.43;35.49
60646;BME280;46462;32.608;-117.032;2023-02-28T01:36:32;99857.67;;;22.61;35.34
60646;BME280;46462;32.608;-117.032;2023-02-28T01:39:05;99857.42;;;22.58;35.47
60646;BME280;46462;32.608;-117.032;2023-02-28T01:41:35;99859.17;;;22.72;35.21
60646;BME280;46462;32.608;-117.032;2023-02-28T01:44:07;99865.34;;;22.61;35.45
60646;BME280;46462;32.608;-117.032;2023-02-28T01:46:36;99862.26;;;22.51;35.60
60646;BME280;46462;32.608;-117.032;2023-02-28T01:49:09;99867.67;;;22.38;36.00
60646;BME280;46462;32.608;-117.032;2023-02-28T01:51:42;99866.96;;;22.47;35.83
60646;BME280;46462;32.608;-117.032;2023-02-28T01:54:11;99863.35;;;22.53;35.65
60646;BME280;46462;32.608;-117.032;2023-02-28T01:56:43;99859.64;;;22.56;35.61
60646;BME280;46462;32.608;-117.032;2023-02-28T01:59:12;99863.31;;;22.58;35.57
60646;BME280;46462;32.608;-117.032;2023-02-28T02:01:40;99858.73;;;22.72;35.26
60646;BME280;46462;32.608;-117.032;2023-02-28T02:04:11;99852.92;;;22.64;35.54
60646;BME280;46462;32.608;-117.032;2023-02-28T02:06:44;99852.74;;;22.58;35.37
60646;BME280;46462;32.608;-117.032;2023-02-28T02:09:13;99856.51;;;22.59;35.39
60646;BME280;46462;32.608;-117.032;2023-02-28T02:11:45;99856.91;;;22.61;35.52
60646;BME280;46462;32.608;-117.032;2023-02-28T02:14:28;99855.59;;;22.49;35.47
60646;BME280;46462;32.608;-117.032;2023-02-28T02:16:56;99849.30;;;22.49;35.52
60646;BME280;46462;32.608;-117.032;2023-02-28T02:21:57;99854.56;;;22.43;35.61
60646;BME280;46462;32.608;-117.032;2023-02-28T02:26:58;99859.29;;;22.53;35.57
60646;BME280;46462;32.608;-117.032;2023-02-28T02:34:29;99860.64;;;22.28;36.01
60646;BME280;46462;32.608;-117.032;2023-02-28T02:36:56;99855.91;;;22.08;36.44
60646;BME280;46462;32.608;-117.032;2023-02-28T02:39:29;99858.46;;;22.16;36.55
60646;BME280;46462;32.608;-117.032;2023-02-28T02:41:55;99856.77;;;22.21;36.76
60646;BME280;46462;32.608;-117.032;2023-02-28T02:44:30;99851.07;;;22.22;36.80
60646;BME280;46462;32.608;-117.032;2023-02-28T02:47:05;99854.91;;;22.12;36.90
60646;BME280;46462;32.608;-117.032;2023-02-28T02:49:30;99857.37;;;22.25;36.77
60646;BME280;46462;32.608;-117.032;2023-02-28T02:52:00;99858.99;;;22.26;36.46
60646;BME280;46462;32.608;-117.032;2023-02-28T02:54:30;99865.42;;;22.18;36.77
60646;BME280;46462;32.608;-117.032;2023-02-28T02:57:02;99867.66;;;21.97;36.95
60646;BME280;46462;32.608;-117.032;2023-02-28T02:59:31;99866.03;;;21.95;37.09
60646;BME280;46462;32.608;-117.032;2023-02-28T03:02:02;99868.27;;;21.93;36.87
60646;BME280;46462;32.608;-117.032;2023-02-28T03:04:34;99866.91;;;21.57;37.65
60646;BME280;46462;32.608;-117.032;2023-02-28T03:07:02;99862.97;;;21.50;37.74
60646;BME280;46462;32.608;-117.032;2023-02-28T03:09:34;99858.50;;;21.35;38.05
60646;BME280;46462;32.608;-117.032;2023-02-28T03:12:04;99857.66;;;21.48;37.97
60646;BME280;46462;32.608;-117.032;2023-02-28T03:14:42;99857.60;;;21.46;37.95
60646;BME280;46462;32.608;-117.032;2023-02-28T03:22:18;99851.88;;;21.04;38.65
60646;BME280;46462;32.608;-117.032;2023-02-28T03:24:43;99853.81;;;21.09;38.71
60646;BME280;46462;32.608;-117.032;2023-02-28T03:27:14;99853.50;;;20.95;39.13
60646;BME280;46462;32.608;-117.032;2023-02-28T03:29:44;99852.22;;;20.58;39.71
60646;BME280;46462;32.608;-117.032;2023-02-28T03:32:16;99848.71;;;20.29;40.57
60646;BME280;46462;32.608;-117.032;2023-02-28T03:34:46;99857.67;;;20.37;40.49
60646;BME280;46462;32.608;-117.032;2023-02-28T03:37:16;99861.10;;;20.37;40.43
60646;BME280;46462;32.608;-117.032;2023-02-28T03:39:45;99865.16;;;20.60;39.99
60646;BME280;46462;32.608;-117.032;2023-02-28T03:42:17;99866.83;;;20.67;39.88
60646;BME280;46462;32.608;-117.032;2023-02-28T03:44:46;99864.78;;;20.70;39.85
60646;BME280;46462;32.608;-117.032;2023-02-28T03:47:17;99859.70;;;20.72;39.93
60646;BME280;46462;32.608;-117.032;2023-02-28T03:49:50;99862.54;;;20.62;40.10
60646;BME280;46462;32.608;-117.032;2023-02-28T03:52:18;99863.43;;;20.67;40.14
60646;BME280;46462;32.608;-117.032;2023-02-28T03:54:50;99864.75;;;20.67;40.21
60646;BME280;46462;32.608;-117.032;2023-02-28T03:57:23;99867.86;;;21.01;39.55
60646;BME280;46462;32.608;-117.032;2023-02-28T03:59:52;99869.51;;;20.85;39.73
60646;BME280;46462;32.608;-117.032;2023-02-28T04:02:19;99875.91;;;20.62;40.35
60646;BME280;46462;32.608;-117.032;2023-02-28T04:04:49;99880.17;;;20.59;40.57
60646;BME280;46462;32.608;-117.032;2023-02-28T04:07:19;99878.90;;;20.78;40.08
60646;BME280;46462;32.608;-117.032;2023-02-28T04:09:50;99877.44;;;20.86;40.10
60646;BME280;46462;32.608;-117.032;2023-02-28T04:12:21;99876.16;;;20.62;40.41
60646;BME280;46462;32.608;-117.032;2023-02-28T04:14:52;99871.26;;;20.16;41.18
60646;BME280;46462;32.608;-117.032;2023-02-28T04:17:23;99875.44;;;20.31;40.92
60646;BME280;46462;32.608;-117.032;2023-02-28T04:19:53;99877.84;;;20.37;40.89
60646;BME280;46462;32.608;-117.032;2023-02-28T04:22:24;99878.74;;;20.40;40.99
60646;BME280;46462;32.608;-117.032;2023-02-28T04:24:54;99875.69;;;20.42;40.88
60646;BME280;46462;32.608;-117.032;2023-02-28T04:27:23;99873.89;;;20.36;40.91
60646;BME280;46462;32.608;-117.032;2023-02-28T04:29:53;99867.21;;;20.40;40.93
60646;BME280;46462;32.608;-117.032;2023-02-28T04:32:23;99866.51;;;20.49;40.71
60646;BME280;46462;32.608;-117.032;2023-02-28T04:34:53;99868.46;;;20.39;40.86
60646;BME280;46462;32.608;-117.032;2023-02-28T04:37:23;99865.46;;;20.36;40.84
60646;BME280;46462;32.608;-117.032;2023-02-28T04:39:54;99867.77;;;20.27;41.14
60646;BME280;46462;32.608;-117.032;2023-02-28T04:42:23;99869.02;;;20.23;41.22
60646;BME280;46462;32.608;-117.032;2023-02-28T04:44:53;99871.87;;;20.32;41.07
60646;BME280;46462;32.608;-117.032;2023-02-28T04:47:23;99870.33;;;20.24;41.24
60646;BME280;46462;32.608;-117.032;2023-02-28T04:49:53;99868.71;;;20.19;41.49
60646;BME280;46462;32.608;-117.032;2023-02-28T04:52:24;99867.98;;;20.42;40.95
60646;BME280;46462;32.608;-117.032;2023-02-28T04:54:54;99873.42;;;20.20;41.36
60646;BME280;46462;32.608;-117.032;2023-02-28T04:57:25;99874.67;;;20.39;40.88
60646;BME280;46462;32.608;-117.032;2023-02-28T04:59:55;99875.02;;;20.33;40.96
60646;BME280;46462;32.608;-117.032;2023-02-28T05:02:26;99875.59;;;20.52;40.51
60646;BME280;46462;32.608;-117.032;2023-02-28T05:04:56;99881.23;;;20.69;40.21
60646;BME280;46462;32.608;-117.032;2023-02-28T05:07:26;99878.78;;;20.61;40.31
60646;BME280;46462;32.608;-117.032;2023-02-28T05:09:56;99876.03;;;20.50;40.52
60646;BME280;46462;32.608;-117.032;2023-02-28T05:12:26;99882.20;;;20.32;40.89
60646;BME280;46462;32.608;-117.032;2023-02-28T05:14:56;99886.10;;;20.67;40.30
60646;BME280;46462;32.608;-117.032;2023-02-28T05:17:27;99886.96;;;20.44;40.83
60646;BME280;46462;32.608;-117.032;2023-02-28T05:19:57;99882.21;;;20.69;40.24
60646;BME280;46462;32.608;-117.032;2023-02-28T05:22:27;99883.80;;;20.97;39.58
60646;BME280;46462;32.608;-117.032;2023-02-28T05:24:57;99889.86;;;21.12;39.23
60646;BME280;46462;32.608;-117.032;2023-02-28T05:27:27;99882.93;;;21.23;39.00
60646;BME280;46462;32.608;-117.032;2023-02-28T05:29:57;99875.01;;;21.34;38.74
60646;BME280;46462;32.608;-117.032;2023-02-28T05:32:27;99877.73;;;21.42;38.56
60646;BME280;46462;32.608;-117.032;2023-02-28T05:34:57;99879.84;;;21.55;38.18
60646;BME280;46462;32.608;-117.032;2023-02-28T05:37:27;99878.52;;;21.63;37.96
60646;BME280;46462;32.608;-117.032;2023-02-28T05:39:58;99880.17;;;21.74;37.72
60646;BME280;46462;32.608;-117.032;2023-02-28T05:42:29;99878.86;;;21.79;37.58
60646;BME280;46462;32.608;-117.032;2023-02-28T05:44:59;99882.87;;;21.86;37.44
60646;BME280;46462;32.608;-117.032;2023-02-28T05:47:29;99881.24;;;21.88;37.38
60646;BME280;46462;32.608;-117.032;2023-02-28T05:49:59;99889.50;;;21.95;37.18
60646;BME280;46462;32.608;-117.032;2023-02-28T05:52:29;99887.46;;;21.97;37.12
60646;BME280;46462;32.608;-117.032;2023-02-28T05:55:00;99889.56;;;22.03;37.01
60646;BME280;46462;32.608;-117.032;2023-02-28T05:57:30;99895.11;;;22.01;37.00
60646;BME280;46462;32.608;-117.032;2023-02-28T06:00:02;99900.05;;;22.02;36.97
60646;BME280;46462;32.608;-117.032;2023-02-28T06:02:32;99901.63;;;22.10;36.84
60646;BME280;46462;32.608;-117.032;2023-02-28T06:05:09;99904.06;;;22.07;36.88
60646;BME280;46462;32.608;-117.032;2023-02-28T06:07:37;99905.23;;;22.15;36.74
60646;BME280;46462;32.608;-117.032;2023-02-28T06:10:08;99900.64;;;22.13;36.78
60646;BME280;46462;32.608;-117.032;2023-02-28T06:12:38;99896.81;;;22.18;36.69
60646;BME280;46462;32.608;-117.032;2023-02-28T06:15:12;99897.87;;;22.21;36.67
60646;BME280;46462;32.608;-117.032;2023-02-28T06:17:40;99903.42;;;22.28;36.52
60646;BME280;46462;32.608;-117.032;2023-02-28T06:20:11;99913.37;;;22.28;36.57
60646;BME280;46462;32.608;-117.032;2023-02-28T06:22:41;99914.56;;;22.28;36.51
60646;BME280;46462;32.608;-117.032;2023-02-28T06:25:12;99914.71;;;22.33;36.45
60646;BME280;46462;32.608;-117.032;2023-02-28T06:27:43;99912.13;;;22.41;36.27
60646;BME280;46462;32.608;-117.032;2023-02-28T06:30:14;99909.60;;;22.33;36.48
60646;BME280;46462;32.608;-117.032;2023-02-28T06:32:44;99905.85;;;22.34;36.47
60646;BME280;46462;32.608;-117.032;2023-02-28T06:35:15;99901.46;;;22.36;36.64
60646;BME280;46462;32.608;-117.032;2023-02-28T06:37:46;99898.90;;;22.32;36.73
60646;BME280;46462;32.608;-117.032;2023-02-28T06:40:17;99899.30;;;22.26;36.87
60646;BME280;46462;32.608;-117.032;2023-02-28T06:42:48;99895.94;;;22.27;36.88
60646;BME280;46462;32.608;-117.032;2023-02-28T06:45:19;99900.19;;;22.26;37.01
60646;BME280;46462;32.608;-117.032;2023-02-28T06:47:50;99893.12;;;22.25;37.13
60646;BME280;46462;32.608;-117.032;2023-02-28T06:50:20;99892.02;;;22.23;37.25
60646;BME280;46462;32.608;-117.032;2023-02-28T06:52:51;99895.07;;;22.26;37.25
60646;BME280;46462;32.608;-117.032;2023-02-28T06:55:22;99897.77;;;22.26;37.33
60646;BME280;46462;32.608;-117.032;2023-02-28T06:57:53;99897.82;;;22.20;37.39
60646;BME280;46462;32.608;-117.032;2023-02-28T07:00:24;99895.59;;;22.14;37.59
60646;BME280;46462;32.608;-117.032;2023-02-28T07:02:55;99900.61;;;22.19;37.52
60646;BME280;46462;32.608;-117.032;2023-02-28T07:05:26;99902.31;;;22.19;37.48
60646;BME280;46462;32.608;-117.032;2023-02-28T07:07:56;99899.64;;;22.19;37.46
60646;BME280;46462;32.608;-117.032;2023-02-28T07:10:27;99903.80;;;22.20;37.51
60646;BME280;46462;32.608;-117.032;2023-02-28T07:12:58;99904.73;;;22.21;37.50
60646;BME280;46462;32.608;-117.032;2023-02-28T07:15:29;99914.72;;;22.29;37.43
60646;BME280;46462;32.608;-117.032;2023-02-28T07:18:00;99919.59;;;22.32;37.32
60646;BME280;46462;32.608;-117.032;2023-02-28T07:20:31;99919.46;;;22.32;37.31
60646;BME280;46462;32.608;-117.032;2023-02-28T07:23:01;99922.15;;;22.43;37.11
60646;BME280;46462;32.608;-117.032;2023-02-28T07:25:32;99920.53;;;22.41;37.13
60646;BME280;46462;32.608;-117.032;2023-02-28T07:28:03;99920.26;;;22.51;36.96
60646;BME280;46462;32.608;-117.032;2023-02-28T07:30:34;99917.50;;;22.48;37.03
60646;BME280;46462;32.608;-117.032;2023-02-28T07:33:05;99913.13;;;22.50;36.93
60646;BME280;46462;32.608;-117.032;2023-02-28T07:35:36;99912.28;;;22.48;37.04
60646;BME280;46462;32.608;-117.032;2023-02-28T07:38:07;99908.52;;;22.52;36.99
60646;BME280;46462;32.608;-117.032;2023-02-28T07:40:37;99907.64;;;22.50;37.00
60646;BME280;46462;32.608;-117.032;2023-02-28T07:43:08;99907.55;;;22.51;37.01
60646;BME280;46462;32.608;-117.032;2023-02-28T07:45:39;99905.77;;;22.53;37.00
60646;BME280;46462;32.608;-117.032;2023-02-28T07:48:10;99905.83;;;22.54;37.04
60646;BME280;46462;32.608;-117.032;2023-02-28T07:50:41;99900.73;;;22.49;37.11
60646;BME280;46462;32.608;-117.032;2023-02-28T07:53:11;99893.88;;;22.49;37.11
60646;BME280;46462;32.608;-117.032;2023-02-28T07:55:41;99890.87;;;22.62;36.92
60646;BME280;46462;32.608;-117.032;2023-02-28T07:58:12;99887.47;;;22.64;36.84
60646;BME280;46462;32.608;-117.032;2023-02-28T08:00:43;99883.04;;;22.60;36.92
60646;BME280;46462;32.608;-117.032;2023-02-28T08:03:17;99877.70;;;22.55;37.08
60646;BME280;46462;32.608;-117.032;2023-02-28T08:05:45;99875.57;;;22.57;37.06
60646;BME280;46462;32.608;-117.032;2023-02-28T08:08:16;99869.40;;;22.53;37.16
60646;BME280;46462;32.608;-117.032;2023-02-28T08:10:46;99867.38;;;22.57;37.07
60646;BME280;46462;32.608;-117.032;2023-02-28T08:13:17;99871.32;;;22.63;37.03
60646;BME280;46462;32.608;-117.032;2023-02-28T08:15:48;99870.52;;;22.60;37.09
60646;BME280;46462;32.608;-117.032;2023-02-28T08:18:19;99872.48;;;22.63;37.03
60646;BME280;46462;32.608;-117.032;2023-02-28T08:20:50;99871.22;;;22.60;37.08
60646;BME280;46462;32.608;-117.032;2023-02-28T08:23:21;99866.99;;;22.60;37.09
60646;BME280;46462;32.608;-117.032;2023-02-28T08:25:54;99862.32;;;22.60;37.12
60646;BME280;46462;32.608;-117.032;2023-02-28T08:28:23;99857.13;;;22.53;37.22
60646;BME280;46462;32.608;-117.032;2023-02-28T08:30:53;99852.34;;;22.53;37.22
60646;BME280;46462;32.608;-117.032;2023-02-28T08:33:25;99845.30;;;22.53;37.21
60646;BME280;46462;32.608;-117.032;2023-02-28T08:35:55;99843.54;;;22.58;37.17
60646;BME280;46462;32.608;-117.032;2023-02-28T08:38:26;99842.87;;;22.59;37.13
60646;BME280;46462;32.608;-117.032;2023-02-28T08:40:58;99843.78;;;22.52;37.24
60646;BME280;46462;32.608;-117.032;2023-02-28T08:43:27;99845.09;;;22.53;37.22
60646;BME280;46462;32.608;-117.032;2023-02-28T08:45:58;99848.57;;;22.51;37.24
60646;BME280;46462;32.608;-117.032;2023-02-28T08:48:31;99845.59;;;22.50;37.26
60646;BME280;46462;32.608;-117.032;2023-02-28T08:51:02;99841.84;;;22.49;37.30
60646;BME280;46462;32.608;-117.032;2023-02-28T08:53:31;99836.35;;;22.50;37.25
60646;BME280;46462;32.608;-117.032;2023-02-28T08:56:03;99835.89;;;22.50;37.25
60646;BME280;46462;32.608;-117.032;2023-02-28T08:58:31;99832.76;;;22.47;37.33
60646;BME280;46462;32.608;-117.032;2023-02-28T09:01:09;99833.60;;;22.45;37.37
60646;BME280;46462;32.608;-117.032;2023-02-28T09:03:33;99834.27;;;22.44;37.39
60646;BME280;46462;32.608;-117.032;2023-02-28T09:06:05;99837.77;;;22.43;37.37
60646;BME280;46462;32.608;-117.032;2023-02-28T09:08:35;99833.72;;;22.43;37.35
60646;BME280;46462;32.608;-117.032;2023-02-28T09:11:06;99832.71;;;22.44;37.36
60646;BME280;46462;32.608;-117.032;2023-02-28T09:13:37;99828.94;;;22.41;37.42
60646;BME280;46462;32.608;-117.032;2023-02-28T09:16:10;99825.15;;;22.39;37.46
60646;BME280;46462;32.608;-117.032;2023-02-28T09:18:39;99822.92;;;22.41;37.43
60646;BME280;46462;32.608;-117.032;2023-02-28T09:21:12;99822.80;;;22.46;37.33
60646;BME280;46462;32.608;-117.032;2023-02-28T09:23:40;99818.33;;;22.48;37.30
60646;BME280;46462;32.608;-117.032;2023-02-28T09:26:15;99814.81;;;22.57;37.13
60646;BME280;46462;32.608;-117.032;2023-02-28T09:28:41;99816.82;;;22.60;37.09
60646;BME280;46462;32.608;-117.032;2023-02-28T09:31:13;99813.63;;;22.59;37.03
60646;BME280;46462;32.608;-117.032;2023-02-28T09:33:43;99803.97;;;22.58;37.02
60646;BME280;46462;32.608;-117.032;2023-02-28T09:36:14;99799.83;;;22.57;37.01
60646;BME280;46462;32.608;-117.032;2023-02-28T09:38:45;99789.52;;;22.56;36.98
60646;BME280;46462;32.608;-117.032;2023-02-28T09:41:17;99780.37;;;22.55;37.03
60646;BME280;46462;32.608;-117.032;2023-02-28T09:43:49;99779.32;;;22.55;36.99
60646;BME280;46462;32.608;-117.032;2023-02-28T09:46:28;99775.88;;;22.58;36.99
60646;BME280;46462;32.608;-117.032;2023-02-28T09:48:49;99773.37;;;22.54;37.01
60646;BME280;46462;32.608;-117.032;2023-02-28T09:51:30;99773.41;;;22.55;37.01
60646;BME280;46462;32.608;-117.032;2023-02-28T09:53:50;99768.94;;;22.55;36.97
60646;BME280;46462;32.608;-117.032;2023-02-28T09:56:23;99763.90;;;22.57;36.92
60646;BME280;46462;32.608;-117.032;2023-02-28T09:58:55;99756.07;;;22.56;36.96
60646;BME280;46462;32.608;-117.032;2023-02-28T10:01:27;99752.05;;;22.59;36.88
60646;BME280;46462;32.608;-117.032;2023-02-28T10:03:57;99748.50;;;22.56;36.91
60646;BME280;46462;32.608;-117.032;2023-02-28T10:06:28;99744.11;;;22.58;36.87
60646;BME280;46462;32.608;-117.032;2023-02-28T10:09:00;99741.72;;;22.56;36.88
60646;BME280;46462;32.608;-117.032;2023-02-28T10:11:25;99736.38;;;22.57;36.84
60646;BME280;46462;32.608;-117.032;2023-02-28T10:13:59;99735.13;;;22.58;36.82
60646;BME280;46462;32.608;-117.032;2023-02-28T10:16:30;99731.27;;;22.59;36.79
60646;BME280;46462;32.608;-117.032;2023-02-28T10:19:02;99730.14;;;22.59;36.74
60646;BME280;46462;32.608;-117.032;2023-02-28T10:21:34;99729.87;;;22.59;36.76
60646;BME280;46462;32.608;-117.032;2023-02-28T10:24:04;99728.65;;;22.58;36.74
60646;BME280;46462;32.608;-117.032;2023-02-28T10:26:32;99726.52;;;22.57;36.71
60646;BME280;46462;32.608;-117.032;2023-02-28T10:29:00;99722.84;;;22.57;36.69
60646;BME280;46462;32.608;-117.032;2023-02-28T10:31:31;99723.49;;;22.56;36.71
60646;BME280;46462;32.608;-117.032;2023-02-28T10:34:02;99726.76;;;22.54;36.67
60646;BME280;46462;32.608;-117.032;2023-02-28T10:36:33;99725.01;;;22.55;36.72
60646;BME280;46462;32.608;-117.032;2023-02-28T10:41:34;99728.93;;;22.50;36.72
60646;BME280;46462;32.608;-117.032;2023-02-28T10:44:14;99731.09;;;22.46;36.80
60646;BME280;46462;32.608;-117.032;2023-02-28T10:46:36;99732.93;;;22.49;36.70
60646;BME280;46462;32.608;-117.032;2023-02-28T10:49:13;99737.20;;;22.48;36.75
60646;BME280;46462;32.608;-117.032;2023-02-28T10:51:40;99739.73;;;22.44;36.76
60646;BME280;46462;32.608;-117.032;2023-02-28T10:54:16;99741.15;;;22.40;36.88
60646;BME280;46462;32.608;-117.032;2023-02-28T10:56:39;99740.46;;;22.44;36.73
60646;BME280;46462;32.608;-117.032;2023-02-28T11:01:42;99751.63;;;22.43;36.71
60646;BME280;46462;32.608;-117.032;2023-02-28T11:04:18;99753.43;;;22.42;36.68
60646;BME280;46462;32.608;-117.032;2023-02-28T11:06:43;99752.65;;;22.41;36.70
60646;BME280;46462;32.608;-117.032;2023-02-28T11:09:22;99751.67;;;22.34;36.76
60646;BME280;46462;32.608;-117.032;2023-02-28T11:11:47;99751.64;;;22.39;36.65
60646;BME280;46462;32.608;-117.032;2023-02-28T11:14:20;99745.73;;;22.37;36.71
60646;BME280;46462;32.608;-117.032;2023-02-28T11:16:46;99739.40;;;22.38;36.64
60646;BME280;46462;32.608;-117.032;2023-02-28T11:19:20;99736.34;;;22.33;36.72
60646;BME280;46462;32.608;-117.032;2023-02-28T11:21:55;99737.30;;;22.33;36.69
60646;BME280;46462;32.608;-117.032;2023-02-28T11:24:24;99736.42;;;22.30;36.77
60646;BME280;46462;32.608;-117.032;2023-02-28T11:26:50;99732.04;;;22.32;36.67
60646;BME280;46462;32.608;-117.032;2023-02-28T11:29:23;99729.25;;;22.28;36.73
60646;BME280;46462;32.608;-117.032;2023-02-28T11:34:25;99719.38;;;22.35;36.55
60646;BME280;46462;32.608;-117.032;2023-02-28T11:36:54;99723.37;;;22.35;36.58
60646;BME280;46462;32.608;-117.032;2023-02-28T11:39:24;99724.09;;;22.44;36.41
60646;BME280;46462;32.608;-117.032;2023-02-28T11:42:07;99721.10;;;22.39;36.36
60646;BME280;46462;32.608;-117.032;2023-02-28T11:44:37;99717.25;;;22.38;36.16
60646;BME280;46462;32.608;-117.032;2023-02-28T11:47:00;99714.72;;;22.45;36.26
60646;BME280;46462;32.608;-117.032;2023-02-28T11:49:33;99710.64;;;22.42;36.26
60646;BME280;46462;32.608;-117.032;2023-02-28T11:52:01;99708.99;;;22.43;36.18
60646;BME280;46462;32.608;-117.032;2023-02-28T11:54:39;99709.69;;;22.44;36.27
60646;BME280;46462;32.608;-117.032;2023-02-28T11:57:08;99709.68;;;22.42;36.24
60646;BME280;46462;32.608;-117.032;2023-02-28T11:59:39;99710.15;;;22.37;36.33
60646;BME280;46462;32.608;-117.032;2023-02-28T12:04:39;99699.67;;;22.35;36.15
60646;BME280;46462;32.608;-117.032;2023-02-28T12:07:11;99691.55;;;22.35;36.23
60646;BME280;46462;32.608;-117.032;2023-02-28T12:09:42;99678.15;;;22.32;36.27
60646;BME280;46462;32.608;-117.032;2023-02-28T12:12:12;99675.96;;;22.29;36.24
60646;BME280;46462;32.608;-117.032;2023-02-28T12:14:47;99675.08;;;22.24;36.25
60646;BME280;46462;32.608;-117.032;2023-02-28T12:17:16;99671.87;;;22.21;36.41
60646;BME280;46462;32.608;-117.032;2023-02-28T12:19:43;99678.03;;;22.26;36.32
60646;BME280;46462;32.608;-117.032;2023-02-28T12:22:20;99683.63;;;22.31;36.14
60646;BME280;46462;32.608;-117.032;2023-02-28T12:24:50;99687.20;;;22.29;36.22
60646;BME280;46462;32.608;-117.032;2023-02-28T12:27:12;99690.40;;;22.30;36.20
60646;BME280;46462;32.608;-117.032;2023-02-28T12:29:47;99695.21;;;22.31;36.01
60646;BME280;46462;32.608;-117.032;2023-02-28T12:32:15;99702.07;;;22.28;36.16
60646;BME280;46462;32.608;-117.032;2023-02-28T12:34:46;99703.56;;;22.30;36.05
60646;BME280;46462;32.608;-117.032;2023-02-28T12:37:16;99703.93;;;22.29;35.95
60646;BME280;46462;32.608;-117.032;2023-02-28T12:39:47;99702.14;;;22.29;36.00
60646;BME280;46462;32.608;-117.032;2023-02-28T12:42:19;99700.25;;;22.23;36.11
60646;BME280;46462;32.608;-117.032;2023-02-28T12:44:51;99703.01;;;22.18;36.05
60646;BME280;46462;32.608;-117.032;2023-02-28T12:47:17;99700.25;;;22.12;36.34
60646;BME280;46462;32.608;-117.032;2023-02-28T12:49:51;99701.85;;;22.11;36.31
60646;BME280;46462;32.608;-117.032;2023-02-28T12:52:23;99701.71;;;22.11;36.29
60646;BME280;46462;32.608;-117.032;2023-02-28T12:54:52;99697.75;;;22.09;36.28
60646;BME280;46462;32.608;-117.032;2023-02-28T12:57:25;99695.68;;;22.08;36.26
60646;BME280;46462;32.608;-117.032;2023-02-28T12:59:54;99691.97;;;22.09;36.25
60646;BME280;46462;32.608;-117.032;2023-02-28T13:05:03;99707.26;;;22.01;36.46
60646;BME280;46462;32.608;-117.032;2023-02-28T13:09:54;99707.13;;;21.86;36.62
60646;BME280;46462;32.608;-117.032;2023-02-28T13:12:24;99709.60;;;21.94;36.52
60646;BME280;46462;32.608;-117.032;2023-02-28T13:15:02;99702.93;;;21.93;36.49
60646;BME280;46462;32.608;-117.032;2023-02-28T13:17:26;99696.17;;;21.94;36.49
60646;BME280;46462;32.608;-117.032;2023-02-28T13:19:58;99694.88;;;21.99;36.33